Time;durP1;ratioP1;P1;durP2;ratioP2;P2;SDS_P1;SDS_P2;PMS_P1;PMS_P2;Temp;Humidity;BMP_temperature;BMP_pressure;BME280_temperature;BME280_humidity;BME280_pressure;Samples;Min_cycle;Max_cycle;Signal;HPM_P1;HPM_P2
2022/06/27 00:00:01;;;;;;;6.80;3.70;;;;;;;22.13;52.71;97962.85;105221;1284;24225;-81
2022/06/27 00:02:59;;;;;;;6.00;3.60;;;;;;;22.07;52.95;97959.72;105142;1284;22541;-80
2022/06/27 00:05:27;;;;;;;4.70;3.50;;;;;;;22.03;52.84;97960.86;104842;1287;22902;-82
2022/06/27 00:07:55;;;;;;;4.90;3.40;;;;;;;21.97;53.20;97958.20;105317;1284;24309;-81
2022/06/27 00:10:24;;;;;;;6.10;4.00;;;;;;;21.92;53.51;97955.30;105388;1284;22575;-82
2022/06/27 00:12:52;;;;;;;7.20;4.10;;;;;;;21.93;53.44;97954.62;105380;1284;22600;-85
2022/06/27 00:15:20;;;;;;;8.20;4.00;;;;;;;21.92;53.34;97956.02;105291;1287;25337;-84
2022/06/27 00:17:48;;;;;;;9.60;4.30;;;;;;;21.87;53.37;97958.38;105089;1284;22587;-86
2022/06/27 00:20:16;;;;;;;8.30;4.30;;;;;;;21.83;53.75;97960.52;105261;1287;22578;-84
2022/06/27 00:22:44;;;;;;;6.50;4.80;;;;;;;21.83;53.96;97961.38;105193;1284;22577;-82
2022/06/27 00:25:12;;;;;;;8.70;3.80;;;;;;;21.81;54.29;97964.17;105419;1284;25366;-82
2022/06/27 00:27:40;;;;;;;8.30;4.00;;;;;;;21.85;54.28;97962.81;105514;1284;25626;-83
2022/06/27 00:30:10;;;;;;;6.40;3.60;;;;;;;21.85;53.98;97959.61;105297;1285;22501;-82
2022/06/27 00:32:40;;;;;;;7.00;3.80;;;;;;;21.84;54.56;97965.77;105529;1284;22572;-83
2022/06/27 00:35:09;;;;;;;6.70;3.40;;;;;;;21.86;54.89;97960.64;105497;1284;25353;-83
2022/06/27 00:37:37;;;;;;;5.30;3.60;;;;;;;21.89;54.64;97961.30;105508;1285;25300;-82
2022/06/27 00:40:06;;;;;;;6.50;4.00;;;;;;;21.90;54.83;97962.34;105282;1287;24204;-81
2022/06/27 00:42:35;;;;;;;5.80;3.40;;;;;;;21.93;55.12;97959.93;105059;1285;22572;-81
2022/06/27 00:45:05;;;;;;;6.60;4.00;;;;;;;21.92;55.28;97955.31;105423;1284;24644;-82
2022/06/27 00:47:34;;;;;;;5.30;4.00;;;;;;;21.94;55.09;97958.70;104994;1287;25160;-81
2022/06/27 00:50:04;;;;;;;5.70;3.70;;;;;;;21.96;55.36;97962.48;105335;1287;23338;-82
2022/06/27 00:52:32;;;;;;;6.20;3.60;;;;;;;21.96;54.98;97960.85;105165;1287;22638;-81
2022/06/27 00:55:01;;;;;;;6.60;4.00;;;;;;;21.92;54.87;97961.25;105354;1285;24546;-81
2022/06/27 00:57:30;;;;;;;5.40;3.80;;;;;;;21.85;54.71;97958.36;105352;1284;24364;-81
2022/06/27 00:59:58;;;;;;;4.20;3.40;;;;;;;21.71;54.68;97961.46;105349;1286;22693;-82
2022/06/27 01:02:26;;;;;;;8.50;4.20;;;;;;;21.64;55.55;97966.52;105139;1284;24224;-81
2022/06/27 01:04:55;;;;;;;4.20;3.50;;;;;;;21.62;55.44;97968.85;105017;1288;22565;-81
2022/06/27 01:07:23;;;;;;;11.10;3.80;;;;;;;21.57;55.17;97969.24;105386;1284;22582;-79
2022/06/27 01:09:52;;;;;;;5.90;3.90;;;;;;;21.56;55.37;97968.30;104981;1287;23174;-78
2022/06/27 01:12:21;;;;;;;6.50;3.70;;;;;;;21.50;55.88;97967.18;105573;1285;22604;-80
2022/06/27 01:14:50;;;;;;;6.50;3.90;;;;;;;21.51;55.92;97962.42;105112;1284;23198;-80
2022/06/27 01:17:19;;;;;;;11.10;4.80;;;;;;;21.51;56.02;97964.45;105278;1284;22583;-79
2022/06/27 01:19:47;;;;;;;9.80;3.90;;;;;;;21.49;55.89;97960.35;105152;1284;25302;-79
2022/06/27 01:22:17;;;;;;;5.00;3.90;;;;;;;21.44;56.15;97963.95;105408;1284;22567;-78
2022/06/27 01:24:46;;;;;;;5.30;3.90;;;;;;;21.42;55.92;97962.76;105220;1286;22588;-80
2022/06/27 01:27:14;;;;;;;5.70;4.00;;;;;;;21.38;56.70;97959.32;105058;1287;25197;-79
2022/06/27 01:29:42;;;;;;;5.50;3.80;;;;;;;21.35;56.93;97956.98;104822;1285;23135;-79
2022/06/27 01:32:10;;;;;;;8.20;3.70;;;;;;;21.37;56.86;97952.02;105309;1284;22573;-79
2022/06/27 01:34:38;;;;;;;6.60;4.10;;;;;;;21.40;56.50;97954.90;104979;1285;25357;-80
2022/06/27 01:37:07;;;;;;;7.20;4.40;;;;;;;21.35;56.74;97951.52;105019;1285;23947;-79
2022/06/27 01:39:41;;;;;;;9.60;7.80;;;;;;;21.35;57.43;97954.86;104844;1285;22583;-79
2022/06/27 01:42:10;;;;;;;14.10;7.70;;;;;;;21.38;56.68;97951.98;104836;1285;24274;-78
2022/06/27 01:44:38;;;;;;;11.10;5.60;;;;;;;21.38;56.72;97945.70;105024;1285;22864;-80
2022/06/27 01:47:11;;;;;;;14.10;6.50;;;;;;;21.29;56.92;97943.98;105360;1284;22639;-79
2022/06/27 01:49:48;;;;;;;22.80;8.10;;;;;;;21.27;57.16;97945.42;105502;1284;23453;-80
2022/06/27 01:52:17;;;;;;;10.70;4.80;;;;;;;21.28;57.15;97945.60;105379;1285;24223;-79
2022/06/27 01:54:54;;;;;;;10.70;5.40;;;;;;;21.22;56.95;97943.70;105468;1284;243727;-79
2022/06/27 01:57:23;;;;;;;13.70;5.70;;;;;;;21.16;57.16;97942.43;105249;1287;22611;-78
2022/06/27 01:59:51;;;;;;;7.90;4.50;;;;;;;21.14;57.48;97944.21;105691;1284;22574;-78
2022/06/27 02:02:19;;;;;;;11.80;4.70;;;;;;;21.11;57.35;97946.67;105021;1287;22664;-79
2022/06/27 02:04:48;;;;;;;7.80;4.10;;;;;;;21.09;57.56;97940.92;105054;1285;22707;-80
2022/06/27 02:07:17;;;;;;;6.50;4.20;;;;;;;21.09;58.14;97947.13;105401;1284;22867;-79
2022/06/27 02:09:45;;;;;;;6.50;4.20;;;;;;;21.18;57.90;97945.20;104692;1287;22566;-79
2022/06/27 02:12:20;;;;;;;6.70;4.20;;;;;;;21.18;57.71;97944.35;105313;1284;23299;-79
2022/06/27 02:14:53;;;;;;;7.50;4.00;;;;;;;21.12;57.36;97948.02;105224;1285;22554;-79
2022/06/27 02:17:34;;;;;;;4.30;3.70;;;;;;;21.12;58.42;97947.70;105392;1284;22702;-79
2022/06/27 02:20:06;;;;;;;6.60;4.10;;;;;;;21.20;58.34;97948.30;105445;1284;22572;-82
2022/06/27 02:22:34;;;;;;;6.00;3.80;;;;;;;21.21;58.06;97951.91;105309;1284;22557;-79
2022/06/27 02:25:03;;;;;;;10.00;4.60;;;;;;;21.20;58.25;97954.79;105462;1284;22710;-79
2022/06/27 02:27:34;;;;;;;6.00;4.40;;;;;;;21.19;58.43;97953.29;104907;1285;22836;-79
2022/06/27 02:30:04;;;;;;;7.50;3.80;;;;;;;21.20;58.56;97952.91;105377;1284;22594;-79
2022/06/27 02:32:32;;;;;;;6.10;4.10;;;;;;;21.18;57.90;97949.75;105452;1284;22700;-80
2022/06/27 02:35:00;;;;;;;7.70;4.80;;;;;;;21.06;57.73;97950.96;105385;1284;22640;-79
2022/06/27 02:37:30;;;;;;;4.70;4.00;;;;;;;20.92;58.20;97952.15;104988;1284;22768;-81
2022/06/27 02:39:59;;;;;;;7.40;4.50;;;;;;;20.85;58.13;97954.30;105193;1284;22570;-80
2022/06/27 02:42:29;;;;;;;7.30;5.30;;;;;;;20.73;58.07;97953.30;105458;1284;25364;-79
2022/06/27 02:44:58;;;;;;;6.20;5.00;;;;;;;20.58;58.53;97951.95;104973;1286;22708;-82
2022/06/27 02:47:32;;;;;;;7.50;4.50;;;;;;;20.52;59.13;97951.56;105835;1285;22579;-79
2022/06/27 02:50:01;;;;;;;7.50;5.10;;;;;;;20.53;59.67;97954.57;105670;1286;22826;-79
2022/06/27 02:52:38;;;;;;;5.60;4.30;;;;;;;20.65;59.87;97951.36;105938;1284;22666;-80
2022/06/27 02:55:13;;;;;;;5.50;4.00;;;;;;;20.61;58.99;97952.08;105688;1284;22765;-80
2022/06/27 02:57:46;;;;;;;6.30;3.50;;;;;;;20.50;59.36;97950.36;105428;1284;22550;-79
2022/06/27 03:00:16;;;;;;;5.80;4.10;;;;;;;20.46;60.67;97952.09;105433;1284;24399;-80
2022/06/27 03:02:45;;;;;;;5.60;4.20;;;;;;;20.55;60.53;97949.62;105114;1284;22557;-79
2022/06/27 03:05:19;;;;;;;7.30;4.00;;;;;;;20.55;59.87;97951.42;104998;1285;24305;-80
2022/06/27 03:07:46;;;;;;;4.90;4.00;;;;;;;20.60;60.35;97948.64;104917;1284;22729;-79
2022/06/27 03:10:14;;;;;;;7.40;4.50;;;;;;;20.60;59.72;97943.08;105197;1284;22578;-79
2022/06/27 03:12:45;;;;;;;6.00;4.60;;;;;;;20.55;59.49;97946.96;105161;1284;22568;-79
2022/06/27 03:15:14;;;;;;;8.40;5.40;;;;;;;20.52;60.26;97949.47;104716;1285;23375;-79
2022/06/27 03:17:43;;;;;;;12.20;5.50;;;;;;;20.56;60.48;97952.30;104992;1285;22572;-80
2022/06/27 03:20:26;;;;;;;6.60;4.80;;;;;;;20.55;60.22;97952.36;105436;1284;23213;-79
2022/06/27 03:23:18;;;;;;;11.20;5.30;;;;;;;20.59;60.09;97954.55;105049;1284;22584;-80
2022/06/27 03:25:54;;;;;;;5.70;5.00;;;;;;;20.56;60.07;97956.77;105407;1284;22569;-79
2022/06/27 03:28:29;;;;;;;7.10;5.00;;;;;;;20.49;59.69;97960.20;105402;1284;25418;-80
2022/06/27 03:31:00;;;;;;;7.20;4.60;;;;;;;20.37;59.50;97962.56;104814;1284;23942;-80
2022/06/27 03:33:29;;;;;;;7.20;4.90;;;;;;;20.27;59.80;97965.88;105424;1284;22566;-79
2022/06/27 03:36:07;;;;;;;10.60;5.80;;;;;;;20.18;59.98;97969.67;105465;1284;22673;-80
2022/06/27 03:38:35;;;;;;;10.60;5.50;;;;;;;20.08;60.85;97972.77;105029;1286;24228;-78
2022/06/27 03:41:04;;;;;;;9.70;7.30;;;;;;;19.96;61.29;97975.10;105124;1284;22563;-78
2022/06/27 03:43:32;;;;;;;9.60;7.50;;;;;;;19.82;61.50;97973.78;104785;1287;25427;-79
2022/06/27 03:46:03;;;;;;;11.30;7.10;;;;;;;19.74;61.87;97979.40;104948;1285;25438;-79
2022/06/27 03:51:28;;;;;;;9.00;7.50;;;;;;;20.04;64.11;97984.23;104800;1287;22631;-79
2022/06/27 03:53:56;;;;;;;8.50;6.90;;;;;;;20.27;63.09;97983.95;104848;1287;24447;-78
2022/06/27 03:56:24;;;;;;;9.00;7.00;;;;;;;20.43;62.88;97986.44;104880;1285;25371;-77
2022/06/27 03:58:52;;;;;;;10.80;7.40;;;;;;;20.53;62.05;97980.38;105032;1285;22755;-78
2022/06/27 04:01:20;;;;;;;7.00;6.30;;;;;;;20.56;62.24;97985.84;105156;1284;22582;-78
2022/06/27 04:03:48;;;;;;;10.40;6.60;;;;;;;20.63;61.89;97986.53;105039;1284;24439;-80
2022/06/27 04:06:19;;;;;;;8.00;6.20;;;;;;;20.63;61.54;97982.86;104737;1285;22563;-79
2022/06/27 04:08:48;;;;;;;8.80;6.10;;;;;;;20.65;61.87;97982.66;104598;1286;25427;-78
2022/06/27 04:11:16;;;;;;;9.50;6.10;;;;;;;20.71;62.08;97984.11;104693;1287;22716;-78
2022/06/27 04:13:46;;;;;;;6.70;5.10;;;;;;;20.71;62.43;97981.52;104802;1286;22571;-79
2022/06/27 04:16:20;;;;;;;6.60;5.30;;;;;;;20.71;62.85;97981.83;104944;1285;24733;-78
2022/06/27 04:18:54;;;;;;;7.30;5.90;;;;;;;20.72;62.43;97982.40;105153;1284;22571;-78
2022/06/27 04:21:45;;;;;;;9.90;5.90;;;;;;;20.76;62.04;97986.70;105068;1284;25457;-78
2022/06/27 04:24:21;;;;;;;6.40;5.20;;;;;;;20.80;62.15;97986.30;105160;1284;22563;-79
2022/06/27 04:26:57;;;;;;;7.00;4.90;;;;;;;20.84;62.37;97986.92;105220;1284;22566;-79
2022/06/27 04:29:26;;;;;;;7.30;5.40;;;;;;;20.91;62.38;97989.08;105420;1284;22580;-80
2022/06/27 04:31:54;;;;;;;8.80;5.80;;;;;;;20.92;62.20;97985.17;104623;1286;25403;-79
2022/06/27 04:34:25;;;;;;;8.30;5.30;;;;;;;20.95;62.32;97986.93;104724;1284;22569;-79
2022/06/27 04:36:53;;;;;;;7.20;5.30;;;;;;;20.95;62.25;97993.05;105188;1284;25120;-76
2022/06/27 04:39:23;;;;;;;8.80;6.10;;;;;;;20.96;62.25;97995.95;104842;1285;22585;-78
2022/06/27 04:41:59;;;;;;;7.20;5.50;;;;;;;20.96;62.18;97996.42;105202;1284;22554;-78
2022/06/27 04:44:27;;;;;;;10.10;5.80;;;;;;;20.95;62.48;98001.27;105235;1284;22708;-78
2022/06/27 04:46:59;;;;;;;7.50;4.30;;;;;;;20.96;62.42;98006.93;105405;1284;22626;-79
2022/06/27 04:49:43;;;;;;;7.00;5.10;;;;;;;21.10;62.22;98009.20;105140;1284;22570;-77
2022/06/27 04:52:12;;;;;;;9.60;5.40;;;;;;;21.24;62.31;98008.02;104944;1284;22567;-78
2022/06/27 04:54:43;;;;;;;7.50;5.20;;;;;;;21.38;62.19;98008.96;105143;1284;22570;-78
2022/06/27 04:57:12;;;;;;;6.90;5.20;;;;;;;21.43;62.26;98012.36;104933;1285;24120;-78
2022/06/27 04:59:40;;;;;;;8.00;4.60;;;;;;;21.51;62.17;98008.89;104940;1285;22754;-79
2022/06/27 05:02:35;;;;;;;7.70;5.10;;;;;;;21.59;61.87;98013.38;105060;1284;24308;-78
2022/06/27 05:05:04;;;;;;;7.20;4.90;;;;;;;21.65;61.80;98018.01;105125;1284;22560;-78
2022/06/27 05:07:32;;;;;;;9.10;6.80;;;;;;;21.72;61.99;98016.16;105024;1284;22840;-79
2022/06/27 05:10:02;;;;;;;8.20;6.00;;;;;;;21.77;61.98;98014.66;105195;1285;22715;-78
2022/06/27 05:12:30;;;;;;;6.70;5.30;;;;;;;21.82;61.85;98012.60;105040;1285;22843;-77
2022/06/27 05:14:58;;;;;;;6.60;5.30;;;;;;;21.84;61.82;98013.27;104994;1285;22570;-77
2022/06/27 05:17:26;;;;;;;8.80;5.10;;;;;;;21.89;61.71;98013.41;105082;1284;22642;-79
2022/06/27 05:19:55;;;;;;;7.50;5.40;;;;;;;21.93;61.55;98012.92;105465;1284;22591;-78
2022/06/27 05:22:23;;;;;;;8.80;5.40;;;;;;;21.96;61.54;98011.09;105423;1284;22661;-77
2022/06/27 05:24:51;;;;;;;7.90;5.30;;;;;;;21.99;61.66;98011.91;105423;1284;25285;-78
2022/06/27 05:27:19;;;;;;;8.50;5.50;;;;;;;22.04;61.50;98020.91;104883;1285;23958;-78
2022/06/27 05:29:47;;;;;;;8.40;5.40;;;;;;;22.10;61.37;98020.21;105002;1284;25242;-78
2022/06/27 05:32:19;;;;;;;12.70;5.80;;;;;;;22.14;61.53;98022.62;105403;1284;22563;-78
2022/06/27 05:34:48;;;;;;;10.40;5.80;;;;;;;22.22;61.37;98024.86;104945;1287;22672;-78
2022/06/27 05:37:16;;;;;;;12.20;5.90;;;;;;;22.32;61.28;98026.02;104918;1285;22578;-78
2022/06/27 05:39:46;;;;;;;7.30;5.10;;;;;;;22.39;61.15;98025.31;104890;1285;24213;-78
2022/06/27 05:42:14;;;;;;;5.60;5.00;;;;;;;22.40;60.97;98029.00;105122;1284;25491;-79
2022/06/27 05:44:42;;;;;;;8.70;6.00;;;;;;;22.45;60.89;98033.39;105117;1285;24439;-79
2022/06/27 05:47:13;;;;;;;6.50;4.70;;;;;;;22.54;60.93;98037.02;105350;1284;22568;-78
2022/06/27 05:49:42;;;;;;;7.10;5.20;;;;;;;22.66;60.82;98042.98;105385;1284;22595;-79
2022/06/27 05:52:10;;;;;;;6.30;5.20;;;;;;;22.77;60.67;98041.99;105042;1285;25382;-80
2022/06/27 05:54:38;;;;;;;9.30;4.80;;;;;;;22.91;60.73;98043.38;105181;1285;22769;-77
2022/06/27 05:57:06;;;;;;;6.80;5.30;;;;;;;23.06;60.44;98043.34;105162;1284;22730;-78
2022/06/27 05:59:34;;;;;;;6.80;5.00;;;;;;;23.16;60.16;98040.22;105277;1284;22644;-79
2022/06/27 06:02:04;;;;;;;6.00;4.80;;;;;;;23.28;60.14;98037.88;105400;1284;22574;-79
2022/06/27 06:04:34;;;;;;;9.20;5.80;;;;;;;23.39;59.86;98040.73;105317;1284;22591;-78
2022/06/27 06:07:04;;;;;;;12.90;5.50;;;;;;;23.49;59.73;98041.05;105183;1285;22581;-79
2022/06/27 06:09:33;;;;;;;6.40;4.60;;;;;;;23.55;59.68;98053.04;105224;1284;22666;-79
2022/06/27 06:12:02;;;;;;;10.20;5.60;;;;;;;23.66;59.67;98053.83;105068;1285;22596;-78
2022/06/27 06:14:38;;;;;;;6.90;4.70;;;;;;;23.81;59.38;98051.61;105429;1284;22547;-79
2022/06/27 06:17:07;;;;;;;9.20;5.50;;;;;;;23.97;59.21;98053.28;105143;1285;24422;-80
2022/06/27 06:19:37;;;;;;;8.30;5.70;;;;;;;24.05;58.76;98057.17;105173;1285;22556;-78
2022/06/27 06:22:05;;;;;;;7.70;4.80;;;;;;;24.06;58.69;98056.23;104948;1285;22543;-79
2022/06/27 06:24:33;;;;;;;8.10;5.20;;;;;;;24.07;58.23;98060.81;105296;1284;22574;-79
2022/06/27 06:27:08;;;;;;;6.20;5.20;;;;;;;24.10;58.22;98063.02;104898;1286;22881;-79
2022/06/27 06:29:36;;;;;;;8.60;5.10;;;;;;;24.16;58.07;98060.08;105032;1284;25395;-79
2022/06/27 06:32:06;;;;;;;12.00;5.40;;;;;;;24.22;58.05;98060.90;105171;1285;22575;-79
2022/06/27 06:34:35;;;;;;;11.90;5.50;;;;;;;24.28;58.05;98064.06;105405;1284;25069;-78
2022/06/27 06:37:07;;;;;;;11.80;5.50;;;;;;;24.35;57.81;98061.73;104904;1285;22578;-77
2022/06/27 06:39:41;;;;;;;9.40;5.50;;;;;;;24.37;57.52;98059.86;105210;1285;22558;-80
2022/06/27 06:42:10;;;;;;;8.90;5.40;;;;;;;24.43;57.35;98066.38;105112;1285;22611;-79
2022/06/27 06:44:47;;;;;;;8.00;5.80;;;;;;;24.50;56.95;98065.14;105177;1285;22581;-79
2022/06/27 06:47:44;;;;;;;12.10;5.30;;;;;;;24.52;56.83;98065.07;105458;1284;22573;-80
2022/06/27 06:50:18;;;;;;;9.40;5.30;;;;;;;24.61;56.65;98068.96;105402;1284;22595;-80
2022/06/27 06:52:49;;;;;;;7.40;5.70;;;;;;;24.68;56.44;98062.46;105214;1284;22578;-80
2022/06/27 06:55:21;;;;;;;7.80;5.40;;;;;;;24.70;56.05;98062.79;105496;1284;22556;-79
2022/06/27 06:57:50;;;;;;;11.60;5.00;;;;;;;24.71;56.05;98064.44;105441;1284;22574;-80
2022/06/27 07:00:19;;;;;;;8.40;5.60;;;;;;;24.75;55.97;98064.36;105206;1284;22581;-80
2022/06/27 07:02:52;;;;;;;6.60;5.20;;;;;;;24.83;55.91;98058.80;105263;1283;25373;-80
2022/06/27 07:05:21;;;;;;;8.10;5.10;;;;;;;24.92;55.79;98056.71;105272;1284;22674;-79
2022/06/27 07:07:51;;;;;;;10.40;5.40;;;;;;;25.06;55.78;98061.62;105196;1285;24247;-80
2022/06/27 07:10:20;;;;;;;10.30;5.40;;;;;;;25.16;55.18;98059.94;105282;1284;24249;-79
2022/06/27 07:12:48;;;;;;;8.90;6.20;;;;;;;25.26;55.12;98063.42;105212;1283;24390;-80
2022/06/27 07:15:16;;;;;;;7.30;4.90;;;;;;;25.30;55.13;98063.81;105151;1285;23251;-80
2022/06/27 07:17:47;;;;;;;11.40;5.50;;;;;;;25.42;55.04;98067.05;105433;1284;25334;-80
2022/06/27 07:20:19;;;;;;;10.90;5.20;;;;;;;25.52;54.92;98065.64;105185;1284;22632;-80
2022/06/27 07:22:49;;;;;;;11.80;5.10;;;;;;;25.62;54.72;98061.05;105496;1284;24111;-78
2022/06/27 07:25:18;;;;;;;8.10;5.20;;;;;;;25.72;54.61;98060.34;105184;1285;22625;-80
2022/06/27 07:27:46;;;;;;;9.60;6.00;;;;;;;25.80;54.35;98063.59;104898;1284;22749;-79
2022/06/27 07:30:16;;;;;;;6.80;5.10;;;;;;;25.89;54.45;98064.92;105408;1284;25235;-79
2022/06/27 07:32:43;;;;;;;11.40;5.30;;;;;;;26.04;54.16;98066.09;104909;1284;25439;-80
2022/06/27 07:35:13;;;;;;;9.80;5.80;;;;;;;26.18;54.20;98067.31;105190;1285;22807;-79
2022/06/27 07:37:45;;;;;;;11.60;5.50;;;;;;;26.27;53.96;98067.61;105484;1284;22556;-79
2022/06/27 07:40:14;;;;;;;8.20;5.40;;;;;;;26.34;53.91;98064.04;105465;1284;22623;-79
2022/06/27 07:42:49;;;;;;;12.30;5.80;;;;;;;26.41;53.47;98067.32;105413;1284;22547;-79
2022/06/27 07:45:24;;;;;;;7.90;5.00;;;;;;;26.51;53.70;98069.52;105191;1284;22567;-79
2022/06/27 07:47:56;;;;;;;7.50;5.40;;;;;;;26.64;53.12;98064.19;105093;1285;23960;-78
2022/06/27 07:50:37;;;;;;;8.40;4.80;;;;;;;26.70;53.03;98062.11;105031;1284;22683;-78
2022/06/27 07:53:12;;;;;;;14.30;6.70;;;;;;;26.78;52.86;98058.27;105207;1285;22782;-79
2022/06/27 07:55:41;;;;;;;10.10;5.60;;;;;;;26.79;52.60;98061.19;105315;1284;22664;-79
2022/06/27 07:58:16;;;;;;;7.50;5.10;;;;;;;26.86;52.52;98059.02;105217;1284;24309;-80
2022/06/27 08:00:50;;;;;;;7.80;5.00;;;;;;;26.97;52.32;98058.96;105458;1284;25435;-78
2022/06/27 08:06:15;;;;;;;10.40;5.60;;;;;;;27.20;51.81;98047.70;105117;1285;22575;-80
2022/06/27 08:08:49;;;;;;;11.70;5.70;;;;;;;27.28;51.75;98050.89;105431;1284;22710;-79
2022/06/27 08:11:23;;;;;;;14.40;5.60;;;;;;;27.42;51.67;98053.14;105507;1284;22575;-80
2022/06/27 08:13:55;;;;;;;10.50;6.30;;;;;;;27.56;51.48;98052.95;105027;1285;24221;-79
2022/06/27 08:16:25;;;;;;;10.70;5.20;;;;;;;27.69;51.05;98049.92;105227;1284;22677;-80
2022/06/27 08:18:53;;;;;;;9.20;5.20;;;;;;;27.79;50.45;98053.48;104905;1285;25505;-79
2022/06/27 08:21:27;;;;;;;8.20;5.10;;;;;;;27.92;50.37;98047.14;105054;1284;22560;-79
2022/06/27 08:23:58;;;;;;;10.60;5.50;;;;;;;28.06;50.37;98048.09;104905;1285;22791;-79
2022/06/27 08:26:28;;;;;;;13.70;6.00;;;;;;;28.17;50.26;98049.07;105132;1285;25505;-80
2022/06/27 08:28:58;;;;;;;13.30;5.50;;;;;;;28.26;49.65;98050.38;105214;1285;22647;-79
2022/06/27 08:31:27;;;;;;;9.40;5.20;;;;;;;28.33;49.42;98048.66;106488;1285;22625;-77
2022/06/27 08:33:59;;;;;;;8.20;5.30;;;;;;;28.43;49.50;98046.65;106408;1284;22646;-79
2022/06/27 08:36:30;;;;;;;10.80;5.10;;;;;;;28.51;48.72;98045.38;105430;1284;22602;-80
2022/06/27 08:39:05;;;;;;;10.60;5.20;;;;;;;28.51;48.86;98048.15;105396;1284;22636;-86
2022/06/27 08:41:36;;;;;;;8.90;4.90;;;;;;;28.58;49.00;98049.81;105186;1284;24518;-86
2022/06/27 08:44:06;;;;;;;9.70;5.00;;;;;;;28.68;49.11;98051.02;105482;1284;22953;-85
2022/06/27 08:46:35;;;;;;;14.30;5.40;;;;;;;28.85;49.04;98053.73;105574;1284;25330;-87
2022/06/27 08:49:05;;;;;;;10.90;5.10;;;;;;;28.95;48.22;98052.96;105518;1284;22593;-88
2022/06/27 08:51:34;;;;;;;11.80;4.90;;;;;;;29.00;47.90;98055.59;105515;1284;25364;-88
2022/06/27 08:54:04;;;;;;;11.00;5.80;;;;;;;29.07;47.92;98053.85;105467;1284;25514;-88
2022/06/27 08:56:32;;;;;;;12.20;5.20;;;;;;;29.12;47.75;98054.09;105044;1285;22706;-89
2022/06/27 08:59:00;;;;;;;10.10;4.50;;;;;;;29.19;47.44;98059.13;105015;1285;22572;-89
2022/06/27 09:01:30;;;;;;;13.10;4.80;;;;;;;29.31;47.11;98055.86;105312;1285;25413;-90
2022/06/27 09:03:59;;;;;;;10.10;5.10;;;;;;;29.41;46.75;98055.38;105670;1284;25432;-90
2022/06/27 09:06:32;;;;;;;12.70;5.00;;;;;;;29.52;46.62;98054.50;105756;1284;23243;-89
2022/06/27 09:09:06;;;;;;;13.10;5.10;;;;;;;29.59;46.04;98057.00;105448;1285;23479;-89
2022/06/27 09:11:40;;;;;;;11.10;5.50;;;;;;;29.64;46.04;98058.61;105383;1284;25573;-89
2022/06/27 09:14:33;;;;;;;14.00;5.00;;;;;;;29.67;45.83;98053.88;105950;1284;22663;-89
2022/06/27 09:17:06;;;;;;;10.30;4.70;;;;;;;29.71;45.45;98056.35;105453;1288;22725;-88
2022/06/27 09:19:54;;;;;;;11.40;5.40;;;;;;;29.71;45.15;98052.55;105684;1287;22689;-88
2022/06/27 09:23:17;;;;;;;15.90;5.50;;;;;;;29.81;45.34;98057.44;105639;1287;22570;-88
2022/06/27 09:25:45;;;;;;;13.00;5.50;;;;;;;29.96;44.94;98051.16;105458;1287;23320;-88
2022/06/27 09:28:14;;;;;;;18.40;6.00;;;;;;;30.05;45.02;98053.45;105354;1287;24459;-89
2022/06/27 09:30:42;;;;;;;10.20;5.20;;;;;;;30.14;44.48;98053.05;105494;1287;24377;-88
2022/06/27 09:33:11;;;;;;;10.70;5.30;;;;;;;30.19;44.54;98051.52;105380;1287;22566;-88
2022/06/27 09:35:39;;;;;;;15.50;6.10;;;;;;;30.27;44.24;98048.70;105343;1288;24009;-87
2022/06/27 09:38:08;;;;;;;13.80;6.20;;;;;;;30.36;44.19;98048.91;105241;1287;24278;-87
2022/06/27 09:40:39;;;;;;;12.70;5.50;;;;;;;30.49;43.78;98050.56;105312;1287;25048;-87
2022/06/27 09:43:09;;;;;;;11.10;5.30;;;;;;;30.59;43.63;98053.12;105286;1287;25472;-88
2022/06/27 09:45:38;;;;;;;13.30;5.60;;;;;;;30.69;44.00;98053.63;105275;1288;23405;-88
2022/06/27 09:48:40;;;;;;;13.00;5.80;;;;;;;30.80;43.25;98050.95;105466;1287;25080;-87
2022/06/27 09:51:10;;;;;;;13.80;5.70;;;;;;;30.86;42.89;98048.84;105250;1287;22572;-86
2022/06/27 09:53:44;;;;;;;13.20;5.40;;;;;;;30.92;43.30;98052.45;105539;1287;24391;-86
2022/06/27 09:56:15;;;;;;;15.50;5.80;;;;;;;30.99;42.59;98055.64;105444;1287;25327;-87
2022/06/27 09:58:44;;;;;;;9.80;5.40;;;;;;;31.01;42.38;98054.39;105434;1287;22583;-87
2022/06/27 10:01:33;;;;;;;13.20;6.20;;;;;;;31.10;42.30;98057.45;105422;1287;22571;-87
2022/06/27 10:04:02;;;;;;;18.10;6.10;;;;;;;31.19;42.19;98052.47;105476;1287;24101;-85
2022/06/27 10:06:31;;;;;;;11.80;5.90;;;;;;;31.29;42.38;98047.20;105318;1287;22805;-87
2022/06/27 10:09:01;;;;;;;15.00;6.00;;;;;;;31.44;42.15;98048.09;105387;1287;22562;-87
2022/06/27 10:11:29;;;;;;;11.60;5.40;;;;;;;31.57;42.03;98044.45;105489;1287;22738;-87
2022/06/27 10:14:23;;;;;;;10.20;5.60;;;;;;;31.64;41.14;98045.42;105115;1287;25429;-89
2022/06/27 10:17:00;;;;;;;15.80;5.70;;;;;;;31.55;41.09;98043.52;105500;1287;22572;-88
2022/06/27 10:19:31;;;;;;;13.50;5.60;;;;;;;31.61;41.20;98042.90;105490;1287;24127;-88
2022/06/27 10:22:26;;;;;;;9.70;5.60;;;;;;;31.66;40.67;98040.22;105134;1288;22895;-87
2022/06/27 10:24:54;;;;;;;12.30;5.40;;;;;;;31.72;41.16;98042.39;105252;1287;23114;-88
2022/06/27 10:27:30;;;;;;;9.20;5.20;;;;;;;31.84;40.43;98041.17;105441;1287;24003;-87
2022/06/27 10:34:48;;;;;;;12.30;5.30;;;;;;;32.20;39.18;98029.66;105267;1287;22880;-87
2022/06/27 10:37:28;;;;;;;9.40;5.10;;;;;;;32.21;39.39;98031.70;105350;1287;22571;-86
2022/06/27 10:40:18;;;;;;;10.20;4.80;;;;;;;32.17;38.58;98024.66;105329;1287;23923;-87
2022/06/27 10:46:43;;;;;;;9.60;5.00;;;;;;;32.43;38.36;98024.31;105525;1287;22718;-84
2022/06/27 10:49:19;;;;;;;8.70;4.80;;;;;;;32.47;37.73;98023.73;105347;1287;22714;-87
2022/06/27 10:52:24;;;;;;;7.00;4.30;;;;;;;32.49;37.80;98017.95;105292;1288;23989;-86
2022/06/27 10:54:52;;;;;;;10.60;4.90;;;;;;;32.54;36.90;98020.04;105122;1287;23992;-88
2022/06/27 10:57:49;;;;;;;9.70;4.50;;;;;;;32.51;36.48;98021.71;105132;1288;25375;-85
2022/06/27 11:00:42;;;;;;;8.20;4.70;;;;;;;32.66;37.38;98020.08;105321;1288;24228;-85
2022/06/27 11:03:22;;;;;;;14.40;5.00;;;;;;;32.87;36.96;98014.98;106964;1287;22598;-92
2022/06/27 11:05:53;;;;;;;9.70;4.40;;;;;;;33.05;36.88;98011.17;106991;1287;22667;-90
2022/06/27 11:08:23;;;;;;;10.30;4.40;;;;;;;33.18;36.02;98009.17;107217;1287;24147;-90
2022/06/27 11:10:52;;;;;;;15.90;4.60;;;;;;;33.16;36.05;98001.88;105836;1286;24431;-88
2022/06/27 11:13:38;;;;;;;7.40;4.30;;;;;;;33.18;36.32;98005.70;105126;1287;24233;-88
2022/06/27 11:16:09;;;;;;;11.30;4.80;;;;;;;33.35;36.29;98000.16;105595;1288;23991;-85
2022/06/27 11:18:41;;;;;;;9.20;4.90;;;;;;;33.53;35.72;97998.30;105561;1287;25439;-89
2022/06/27 11:21:15;;;;;;;7.60;3.80;;;;;;;33.61;35.15;97994.69;105161;1288;22721;-89
2022/06/27 11:34:15;;;;;;;7.70;3.90;;;;;;;33.87;33.61;97981.88;105890;1285;25444;-86
2022/06/27 11:36:44;;;;;;;9.10;4.20;;;;;;;34.07;32.88;97985.41;105979;1284;22545;-88
2022/06/27 11:39:16;;;;;;;7.50;4.50;;;;;;;34.22;32.67;97984.95;106442;1284;22575;-86
2022/06/27 11:41:44;;;;;;;9.40;4.40;;;;;;;34.38;32.65;97980.30;106908;1284;24016;-86
2022/06/27 11:44:14;;;;;;;8.00;4.00;;;;;;;34.47;32.62;97977.16;105889;1284;22598;-89
2022/06/27 11:46:46;;;;;;;7.00;4.00;;;;;;;34.68;32.56;97983.41;105777;1285;22564;-90
2022/06/27 11:49:43;;;;;;;6.30;3.40;;;;;;;34.83;31.96;97986.55;105828;1284;24212;-87
2022/06/27 11:52:13;;;;;;;8.50;4.30;;;;;;;35.01;31.73;97982.21;106051;1284;22609;-91
2022/06/27 11:54:48;;;;;;;5.70;3.70;;;;;;;35.16;31.29;97981.61;105959;1284;23336;-90
2022/06/27 12:01:10;;;;;;;5.80;3.60;;;;;;;35.41;30.54;97978.87;105802;1284;22601;-85
2022/06/27 12:03:39;;;;;;;5.30;3.30;;;;;;;35.51;30.06;97975.91;105548;1285;25422;-87
2022/06/27 12:06:16;;;;;;;5.40;3.50;;;;;;;35.50;30.02;97972.04;105495;1284;25359;-90
2022/06/27 12:09:07;;;;;;;6.80;3.60;;;;;;;35.49;29.68;97963.97;105635;1284;22566;-87
2022/06/27 12:11:37;;;;;;;8.70;3.60;;;;;;;35.44;29.20;97967.08;105580;1284;22635;-87